Schrassig, Luxembourg
Current Conditions -  °F | °C
As of 3:20 AM on Sunday 21 Dec 2014 (Local Time) from ELLX Reporting Station
NA  
Wind Chill: 34°   Ceiling: NA
Heat Index: 39°   Visibility: 6mi
Dew Point: 37°   Wind: 7mph
Humidity: 93%   Direction: 270°W
Pressure: 30.45"   Gusts: NA
Location:  49.61°N, 6.26°E
Report Text: ELLX 210220Z AUTO 27006KT 230V300 9999 NDV 04/03 Q1031
Loading
Personal Weather Stations






























Interactive Weather Map New forecast layout! Learn more

10-Day Weather Forecast

Advertisements
Track Severe Weather on mobile